Townsend, MT

9:52 PM MDT on March 28, 2015 (GMT -0600)
Townsend Seeds | | Change Station
CLOSE
Current Station
Personal Weather Station
Location: Townsend, MT
Elevation: 3825 ft
Nearby Weather Stations

Elev 3825 ft 46.32 °N, 111.52 °W | Updated 21 seconds ago

Mostly Cloudy
Mostly Cloudy
47.3 °F
Feels Like 47 °F
N
2.2
Wind Variable Wind from SSE
Gusts 3.1 mph

Today
High -- | Low -- °F
--% Chance of Precip.
Yesterday
High -- | Low -- °F
Precip. -- in
7:13 AM 7:49 PM
Waxing Gibbous, 68% visible
Pressure 30.21 in
Visibility 10.0 miles
Clouds Clear
Windchill 47 °F
Dew Point 18 °F
Humidity 31%
Rainfall 0.37 in
Snow Depth Not available.
UV 0 out of 12
Pollen 6.10 out of 12
Air Quality Not available.
Flu Activity Not available.
METAR KHLN 290253Z 29021G31KT 10SM CLR 09/M03 A3015 RMK AO2 PK WND 27036/0211 SLP228 T00891033 51041

More Conditions Fewer Conditions

Pressure 30.21 in
Visibility 10.0 miles
Clouds Clear
Windchill 47 °F
Dew Point 18 °F
Humidity 31%
Rainfall 0.37 in
Snow Depth Not available.
UV 0 out of 12
Pollen 6.10 out of 12
Air Quality Not available.
Flu Activity Not available.
METAR KHLN 290253Z 29021G31KT 10SM CLR 09/M03 A3015 RMK AO2 PK WND 27036/0211 SLP228 T00891033 51041

More Conditions Fewer Conditions

10-Day Weather Forecast

Almanac

Astronomy

Mar. 28, 2015 Rise Set
Actual Time
Civil Twilight
Nautical Twilight
Astronomical Twilight
Moon
Length of Visible Light
Length of Day
Tomorrow will be .
, % of the Moon is Illuminated

Today's Extremes

State Highs State Lows

Community

WunderPhotos

Upload Photos

1,809,177 photos uploaded!

WunderBlogs® & News

Nearby

Air Quality

  Air Quality AQ Index Pollutant
Not available.

Snow Depth

Station Depth Elevation

Earthquake Activity

City Distance Mag. Time & Date
Minimum magnitude displayed is 2.5.

Coastal Water Temperatures

Place Temperature

Stations

Nearby Weather Stations

Station Location Temp. Windchill Dew Point Humidity Wind Precip. Elev Updated Type